MMCE

Ciudad del Carmen International Airport

Airport
ICAO code
MMCE
IATA Code
CME
Summary
ICAO Region
CARSAM
ICAO Territory
Location

Cidad del Carmen, Campeche

Serving
Ciudad Del Carmen
Elevation
10 ft
Coordinates
18° 39' 13" N , 91° 47' 56" W
KCC
Metar
MMCE 231246Z 16014KT 4SM SKC 29/24 A2984 RMK HZY

International airport located in Ciudad del Carmen, Campeche, Mexico.

Climatology

Tropical Savannah climate (Köppen climate classification Aw)

Runways

Designator Length Width Surface Rops
13/31 2200 45 ASP Yes/Yes

Airport map

Aerial View

SKYbrary Partners:

Safety knowledge contributed by: